sensor_id;sensor_type;location;lat;lon;timestamp;pressure;altitude;pressure_sealevel;temperature;humidity
19128;BME280;9696;53.686;10.094;2023-02-13T00:02:23;103618.06;;;6.85;100.00
19128;BME280;9696;53.686;10.094;2023-02-13T00:04:52;103609.34;;;6.86;100.00
19128;BME280;9696;53.686;10.094;2023-02-13T00:07:21;103608.50;;;6.85;100.00
19128;BME280;9696;53.686;10.094;2023-02-13T00:09:51;103606.19;;;6.73;100.00
19128;BME280;9696;53.686;10.094;2023-02-13T00:12:21;103615.47;;;6.85;100.00
19128;BME280;9696;53.686;10.094;2023-02-13T00:14:53;103616.41;;;6.82;100.00
19128;BME280;9696;53.686;10.094;2023-02-13T00:17:22;103608.66;;;6.79;100.00
19128;BME280;9696;53.686;10.094;2023-02-13T00:19:52;103608.66;;;6.79;100.00
19128;BME280;9696;53.686;10.094;2023-02-13T00:22:21;103599.91;;;6.80;100.00
19128;BME280;9696;53.686;10.094;2023-02-13T00:24:51;103600.94;;;6.75;100.00
19128;BME280;9696;53.686;10.094;2023-02-13T00:27:21;103587.84;;;6.76;100.00
19128;BME280;9696;53.686;10.094;2023-02-13T00:29:50;103594.88;;;6.73;100.00
19128;BME280;9696;53.686;10.094;2023-02-13T00:32:20;103596.53;;;6.77;100.00
19128;BME280;9696;53.686;10.094;2023-02-13T00:34:49;103593.88;;;6.78;100.00
19128;BME280;9696;53.686;10.094;2023-02-13T00:37:18;103599.25;;;6.72;100.00
19128;BME280;9696;53.686;10.094;2023-02-13T00:39:53;103593.97;;;6.75;100.00
19128;BME280;9696;53.686;10.094;2023-02-13T00:42:24;103595.72;;;6.75;100.00
19128;BME280;9696;53.686;10.094;2023-02-13T00:44:53;103593.16;;;6.72;100.00
19128;BME280;9696;53.686;10.094;2023-02-13T00:47:23;103594.84;;;6.74;100.00
19128;BME280;9696;53.686;10.094;2023-02-13T00:49:52;103598.34;;;6.73;100.00
19128;BME280;9696;53.686;10.094;2023-02-13T00:52:21;103597.50;;;6.73;100.00
19128;BME280;9696;53.686;10.094;2023-02-13T00:54:50;103593.97;;;6.75;100.00
19128;BME280;9696;53.686;10.094;2023-02-13T00:57:20;103600.00;;;6.77;100.00
19128;BME280;9696;53.686;10.094;2023-02-13T00:59:50;103601.91;;;6.71;100.00
19128;BME280;9696;53.686;10.094;2023-02-13T01:02:19;103592.16;;;6.77;100.00
19128;BME280;9696;53.686;10.094;2023-02-13T01:04:48;103599.25;;;6.72;100.00
19128;BME280;9696;53.686;10.094;2023-02-13T01:07:18;103585.31;;;6.73;100.00
19128;BME280;9696;53.686;10.094;2023-02-13T01:09:48;103594.94;;;6.71;100.00
19128;BME280;9696;53.686;10.094;2023-02-13T01:12:17;103590.53;;;6.73;100.00
19128;BME280;9696;53.686;10.094;2023-02-13T01:14:46;103589.59;;;6.76;100.00
19128;BME280;9696;53.686;10.094;2023-02-13T01:17:19;103591.41;;;6.74;100.00
19128;BME280;9696;53.686;10.094;2023-02-13T01:19:48;103588.78;;;6.74;100.00
19128;BME280;9696;53.686;10.094;2023-02-13T01:22:18;103587.84;;;6.76;100.00
19128;BME280;9696;53.686;10.094;2023-02-13T01:24:49;103584.56;;;6.68;100.00
19128;BME280;9696;53.686;10.094;2023-02-13T01:27:18;103584.31;;;6.79;100.00
19128;BME280;9696;53.686;10.094;2023-02-13T01:29:48;103591.50;;;6.69;100.00
19128;BME280;9696;53.686;10.094;2023-02-13T01:32:19;103585.41;;;6.70;100.00
19128;BME280;9696;53.686;10.094;2023-02-13T01:34:49;103583.66;;;6.71;100.00
19128;BME280;9696;53.686;10.094;2023-02-13T01:37:18;103581.94;;;6.70;100.00
19128;BME280;9696;53.686;10.094;2023-02-13T01:39:47;103585.31;;;6.73;100.00
19128;BME280;9696;53.686;10.094;2023-02-13T01:42:24;103578.31;;;6.75;100.00
19128;BME280;9696;53.686;10.094;2023-02-13T01:44:55;103576.72;;;6.70;100.00
19128;BME280;9696;53.686;10.094;2023-02-13T01:47:32;103575.75;;;6.74;100.00
19128;BME280;9696;53.686;10.094;2023-02-13T01:50:10;103569.78;;;6.69;100.00
19128;BME280;9696;53.686;10.094;2023-02-13T01:52:43;103568.09;;;6.68;100.00
19128;BME280;9696;53.686;10.094;2023-02-13T01:55:15;103565.63;;;6.60;100.00
19128;BME280;9696;53.686;10.094;2023-02-13T01:57:50;103564.75;;;6.61;100.00
19128;BME280;9696;53.686;10.094;2023-02-13T02:00:22;103559.22;;;6.73;100.00
19128;BME280;9696;53.686;10.094;2023-02-13T02:03:00;103566.38;;;6.65;100.00
19128;BME280;9696;53.686;10.094;2023-02-13T02:05:34;103567.53;;;6.55;100.00
19128;BME280;9696;53.686;10.094;2023-02-13T02:08:06;103554.97;;;6.69;100.00
19128;BME280;9696;53.686;10.094;2023-02-13T02:10:45;103549.00;;;6.64;100.00
19128;BME280;9696;53.686;10.094;2023-02-13T02:13:16;103552.69;;;6.57;100.00
19128;BME280;9696;53.686;10.094;2023-02-13T02:15:47;103554.28;;;6.62;100.00
19128;BME280;9696;53.686;10.094;2023-02-13T02:18:20;103552.59;;;6.60;100.00
19128;BME280;9696;53.686;10.094;2023-02-13T02:24:25;103546.56;;;6.58;100.00
19128;BME280;9696;53.686;10.094;2023-02-13T02:27:38;103549.09;;;6.61;100.00
19128;BME280;9696;53.686;10.094;2023-02-13T02:30:40;103556.00;;;6.63;100.00
19128;BME280;9696;53.686;10.094;2023-02-13T02:33:24;103556.03;;;6.62;100.00
19128;BME280;9696;53.686;10.094;2023-02-13T02:36:13;103556.13;;;6.59;100.00
19128;BME280;9696;53.686;10.094;2023-02-13T02:38:58;103541.50;;;6.52;100.00
19128;BME280;9696;53.686;10.094;2023-02-13T02:41:45;103548.44;;;6.53;100.00
19128;BME280;9696;53.686;10.094;2023-02-13T02:44:31;103544.16;;;6.50;100.00
19128;BME280;9696;53.686;10.094;2023-02-13T02:47:08;103555.34;;;6.55;100.00
19128;BME280;9696;53.686;10.094;2023-02-13T02:50:11;103549.44;;;6.47;100.00
19128;BME280;9696;53.686;10.094;2023-02-13T02:52:49;103545.03;;;6.49;100.00
19128;BME280;9696;53.686;10.094;2023-02-13T02:55:33;103545.00;;;6.51;100.00
19128;BME280;9696;53.686;10.094;2023-02-13T02:58:10;103544.06;;;6.53;100.00
19128;BME280;9696;53.686;10.094;2023-02-13T03:01:01;103543.19;;;6.54;100.00
19128;BME280;9696;53.686;10.094;2023-02-13T03:03:50;103537.31;;;6.46;100.00
19128;BME280;9696;53.686;10.094;2023-02-13T03:06:43;103537.44;;;6.40;100.00
19128;BME280;9696;53.686;10.094;2023-02-13T03:09:18;103540.09;;;6.39;100.00
19128;BME280;9696;53.686;10.094;2023-02-13T03:12:07;103540.78;;;6.45;100.00
19128;BME280;9696;53.686;10.094;2023-02-13T03:14:55;103539.94;;;6.45;100.00
19128;BME280;9696;53.686;10.094;2023-02-13T03:17:24;103536.34;;;6.49;100.00
19128;BME280;9696;53.686;10.094;2023-02-13T03:20:21;103535.75;;;6.39;100.00
19128;BME280;9696;53.686;10.094;2023-02-13T03:23:16;103548.69;;;6.42;100.00
19128;BME280;9696;53.686;10.094;2023-02-13T03:28:51;103535.47;;;6.50;100.00
19128;BME280;9696;53.686;10.094;2023-02-13T03:31:47;103546.66;;;6.55;100.00
19128;BME280;9696;53.686;10.094;2023-02-13T03:34:22;103549.47;;;6.46;100.00
19128;BME280;9696;53.686;10.094;2023-02-13T03:37:14;103545.00;;;6.51;100.00
19128;BME280;9696;53.686;10.094;2023-02-13T03:40:12;103552.97;;;6.45;100.00
19128;BME280;9696;53.686;10.094;2023-02-13T03:42:46;103554.59;;;6.49;100.00
19128;BME280;9696;53.686;10.094;2023-02-13T03:45:20;103559.03;;;6.45;100.00
19128;BME280;9696;53.686;10.094;2023-02-13T03:48:09;103557.31;;;6.46;100.00
19128;BME280;9696;53.686;10.094;2023-02-13T03:50:59;103552.97;;;6.45;100.00
19128;BME280;9696;53.686;10.094;2023-02-13T03:53:32;103552.00;;;6.49;100.00
19128;BME280;9696;53.686;10.094;2023-02-13T03:56:06;103555.50;;;6.48;100.00
19128;BME280;9696;53.686;10.094;2023-02-13T03:58:55;103558.16;;;6.46;100.00
19128;BME280;9696;53.686;10.094;2023-02-13T04:01:48;103561.84;;;6.38;100.00
19128;BME280;9696;53.686;10.094;2023-02-13T04:04:24;103559.09;;;6.44;100.00
19128;BME280;9696;53.686;10.094;2023-02-13T04:06:58;103559.19;;;6.39;100.00
19128;BME280;9696;53.686;10.094;2023-02-13T04:09:31;103551.19;;;6.47;100.00
19128;BME280;9696;53.686;10.094;2023-02-13T04:12:08;103551.13;;;6.48;100.00
19128;BME280;9696;53.686;10.094;2023-02-13T04:14:47;103555.47;;;6.49;100.00
19128;BME280;9696;53.686;10.094;2023-02-13T04:17:21;103555.19;;;6.60;100.00
19128;BME280;9696;53.686;10.094;2023-02-13T04:19:52;103552.69;;;6.57;100.00
19128;BME280;9696;53.686;10.094;2023-02-13T04:22:22;103550.34;;;6.46;100.00
19128;BME280;9696;53.686;10.094;2023-02-13T04:24:52;103553.06;;;6.40;100.00
19128;BME280;9696;53.686;10.094;2023-02-13T04:27:25;103541.75;;;6.41;100.00
19128;BME280;9696;53.686;10.094;2023-02-13T04:29:55;103554.91;;;6.37;100.00
19128;BME280;9696;53.686;10.094;2023-02-13T04:32:25;103547.81;;;6.43;100.00
19128;BME280;9696;53.686;10.094;2023-02-13T04:34:54;103553.03;;;6.43;100.00
19128;BME280;9696;53.686;10.094;2023-02-13T04:37:23;103554.00;;;6.39;100.00
19128;BME280;9696;53.686;10.094;2023-02-13T04:39:52;103548.78;;;6.39;100.00
19128;BME280;9696;53.686;10.094;2023-02-13T04:42:23;103553.31;;;6.31;100.00
19128;BME280;9696;53.686;10.094;2023-02-13T04:44:52;103562.00;;;6.30;100.00
19128;BME280;9696;53.686;10.094;2023-02-13T04:47:22;103554.97;;;6.34;100.00
19128;BME280;9696;53.686;10.094;2023-02-13T04:49:51;103553.34;;;6.30;100.00
19128;BME280;9696;53.686;10.094;2023-02-13T04:52:20;103551.75;;;6.24;100.00
19128;BME280;9696;53.686;10.094;2023-02-13T04:54:50;103548.09;;;6.31;100.00
19128;BME280;9696;53.686;10.094;2023-02-13T04:57:19;103560.28;;;6.31;100.00
19128;BME280;9696;53.686;10.094;2023-02-13T04:59:49;103548.91;;;6.33;100.00
19128;BME280;9696;53.686;10.094;2023-02-13T05:02:19;103541.16;;;6.30;100.00
19128;BME280;9696;53.686;10.094;2023-02-13T05:04:48;103555.06;;;6.31;100.00
19128;BME280;9696;53.686;10.094;2023-02-13T05:07:17;103553.22;;;6.34;100.00
19128;BME280;9696;53.686;10.094;2023-02-13T05:09:46;103557.88;;;6.22;100.00
19128;BME280;9696;53.686;10.094;2023-02-13T05:12:18;103556.41;;;6.10;100.00
19128;BME280;9696;53.686;10.094;2023-02-13T05:14:49;103557.06;;;6.20;100.00
19128;BME280;9696;53.686;10.094;2023-02-13T05:17:18;103565.84;;;6.14;100.00
19128;BME280;9696;53.686;10.094;2023-02-13T05:19:47;103552.81;;;6.14;100.00
19128;BME280;9696;53.686;10.094;2023-02-13T05:22:16;103561.41;;;6.19;100.00
19128;BME280;9696;53.686;10.094;2023-02-13T05:25:03;103564.72;;;6.26;100.00
19128;BME280;9696;53.686;10.094;2023-02-13T05:27:32;103564.13;;;6.13;100.00
19128;BME280;9696;53.686;10.094;2023-02-13T05:30:04;103562.44;;;6.12;100.00
19128;BME280;9696;53.686;10.094;2023-02-13T05:32:32;103569.53;;;6.05;100.00
19128;BME280;9696;53.686;10.094;2023-02-13T05:35:02;103562.31;;;6.16;100.00
19128;BME280;9696;53.686;10.094;2023-02-13T05:37:31;103567.50;;;6.18;100.00
19128;BME280;9696;53.686;10.094;2023-02-13T05:40:01;103568.28;;;6.22;100.00
19128;BME280;9696;53.686;10.094;2023-02-13T05:42:30;103565.75;;;6.20;100.00
19128;BME280;9696;53.686;10.094;2023-02-13T05:45:04;103571.78;;;6.21;100.00
19128;BME280;9696;53.686;10.094;2023-02-13T05:47:33;103563.25;;;6.14;100.00
19128;BME280;9696;53.686;10.094;2023-02-13T05:50:02;103566.63;;;6.19;100.00
19128;BME280;9696;53.686;10.094;2023-02-13T05:52:32;103574.53;;;6.14;100.00
19128;BME280;9696;53.686;10.094;2023-02-13T05:55:01;103566.72;;;6.14;100.00
19128;BME280;9696;53.686;10.094;2023-02-13T05:57:30;103558.91;;;6.13;100.00
19128;BME280;9696;53.686;10.094;2023-02-13T06:00:04;103562.44;;;6.12;100.00
19128;BME280;9696;53.686;10.094;2023-02-13T06:02:34;103569.41;;;6.11;100.00
19128;BME280;9696;53.686;10.094;2023-02-13T06:05:04;103565.97;;;6.09;100.00
19128;BME280;9696;53.686;10.094;2023-02-13T06:07:34;103559.94;;;6.07;100.00
19128;BME280;9696;53.686;10.094;2023-02-13T06:10:03;103565.19;;;6.04;100.00
19128;BME280;9696;53.686;10.094;2023-02-13T06:12:32;103565.16;;;6.07;100.00
19128;BME280;9696;53.686;10.094;2023-02-13T06:15:04;103562.47;;;6.10;100.00
19128;BME280;9696;53.686;10.094;2023-02-13T06:17:33;103571.31;;;6.03;100.00
19128;BME280;9696;53.686;10.094;2023-02-13T06:20:02;103566.09;;;6.03;100.00
19128;BME280;9696;53.686;10.094;2023-02-13T06:22:32;103569.75;;;5.96;100.00
19128;BME280;9696;53.686;10.094;2023-02-13T06:25:01;103569.44;;;6.08;100.00
19128;BME280;9696;53.686;10.094;2023-02-13T06:27:31;103568.53;;;6.11;100.00
19128;BME280;9696;53.686;10.094;2023-02-13T06:30:00;103569.84;;;5.90;100.00
19128;BME280;9696;53.686;10.094;2023-02-13T06:32:30;103571.50;;;5.94;100.00
19128;BME280;9696;53.686;10.094;2023-02-13T06:35:00;103577.50;;;5.98;100.00
19128;BME280;9696;53.686;10.094;2023-02-13T06:37:32;103578.44;;;5.95;100.00
19128;BME280;9696;53.686;10.094;2023-02-13T06:40:06;103580.34;;;5.86;100.00
19128;BME280;9696;53.686;10.094;2023-02-13T06:42:35;103587.28;;;5.85;100.00
19128;BME280;9696;53.686;10.094;2023-02-13T06:45:05;103595.09;;;5.88;100.00
19128;BME280;9696;53.686;10.094;2023-02-13T06:47:40;103590.63;;;5.93;100.00
19128;BME280;9696;53.686;10.094;2023-02-13T06:50:11;103594.94;;;5.94;100.00
19128;BME280;9696;53.686;10.094;2023-02-13T06:52:45;103593.13;;;5.98;100.00
19128;BME280;9696;53.686;10.094;2023-02-13T06:55:15;103593.91;;;6.03;100.00
19128;BME280;9696;53.686;10.094;2023-02-13T06:57:45;103608.75;;;5.99;100.00
19128;BME280;9696;53.686;10.094;2023-02-13T07:00:16;103609.47;;;6.04;100.00
19128;BME280;9696;53.686;10.094;2023-02-13T07:02:47;103607.75;;;6.05;100.00
19128;BME280;9696;53.686;10.094;2023-02-13T07:05:16;103606.84;;;6.07;100.00
19128;BME280;9696;53.686;10.094;2023-02-13T07:07:45;103611.38;;;5.98;100.00
19128;BME280;9696;53.686;10.094;2023-02-13T07:10:15;103615.81;;;5.93;100.00
19128;BME280;9696;53.686;10.094;2023-02-13T07:12:44;103614.16;;;5.89;100.00
19128;BME280;9696;53.686;10.094;2023-02-13T07:15:32;103618.56;;;5.87;100.00
19128;BME280;9696;53.686;10.094;2023-02-13T07:18:03;103625.28;;;5.97;100.00
19128;BME280;9696;53.686;10.094;2023-02-13T07:20:33;103616.75;;;5.90;100.00
19128;BME280;9696;53.686;10.094;2023-02-13T07:23:04;103615.94;;;5.87;100.00
19128;BME280;9696;53.686;10.094;2023-02-13T07:25:33;103616.63;;;5.96;100.00
19128;BME280;9696;53.686;10.094;2023-02-13T07:28:03;103622.72;;;5.95;100.00
19128;BME280;9696;53.686;10.094;2023-02-13T07:30:34;103614.91;;;5.95;100.00
19128;BME280;9696;53.686;10.094;2023-02-13T07:33:05;103624.53;;;5.92;100.00
19128;BME280;9696;53.686;10.094;2023-02-13T07:35:35;103620.94;;;5.97;100.00
19128;BME280;9696;53.686;10.094;2023-02-13T07:38:05;103632.13;;;6.02;100.00
19128;BME280;9696;53.686;10.094;2023-02-13T07:40:34;103627.78;;;6.03;100.00
19128;BME280;9696;53.686;10.094;2023-02-13T07:43:03;103630.41;;;6.01;100.00
19128;BME280;9696;53.686;10.094;2023-02-13T07:45:32;103640.03;;;5.98;100.00
19128;BME280;9696;53.686;10.094;2023-02-13T07:48:02;103633.94;;;5.99;100.00
19128;BME280;9696;53.686;10.094;2023-02-13T07:50:32;103638.22;;;6.01;100.00
19128;BME280;9696;53.686;10.094;2023-02-13T07:53:02;103632.94;;;6.04;100.00
19128;BME280;9696;53.686;10.094;2023-02-13T07:55:31;103639.78;;;6.08;100.00
19128;BME280;9696;53.686;10.094;2023-02-13T07:58:00;103634.72;;;6.04;100.00
19128;BME280;9696;53.686;10.094;2023-02-13T08:00:29;103633.78;;;6.06;100.00
19128;BME280;9696;53.686;10.094;2023-02-13T08:02:59;103640.72;;;6.06;100.00
19128;BME280;9696;53.686;10.094;2023-02-13T08:05:31;103644.13;;;6.09;100.00
19128;BME280;9696;53.686;10.094;2023-02-13T08:08:03;103637.88;;;6.18;100.00
19128;BME280;9696;53.686;10.094;2023-02-13T08:10:32;103637.97;;;6.13;100.00
19128;BME280;9696;53.686;10.094;2023-02-13T08:13:19;103652.69;;;6.16;100.00
19128;BME280;9696;53.686;10.094;2023-02-13T08:15:48;103651.84;;;6.14;100.00
19128;BME280;9696;53.686;10.094;2023-02-13T08:18:17;103655.25;;;6.18;100.00
19128;BME280;9696;53.686;10.094;2023-02-13T08:20:47;103657.00;;;6.17;100.00
19128;BME280;9696;53.686;10.094;2023-02-13T08:23:18;103659.56;;;6.20;100.00
19128;BME280;9696;53.686;10.094;2023-02-13T08:25:47;103661.31;;;6.18;100.00
19128;BME280;9696;53.686;10.094;2023-02-13T08:28:16;103665.66;;;6.19;100.00
19128;BME280;9696;53.686;10.094;2023-02-13T08:30:46;103657.78;;;6.21;100.00
19128;BME280;9696;53.686;10.094;2023-02-13T08:33:15;103660.44;;;6.19;100.00
19128;BME280;9696;53.686;10.094;2023-02-13T08:35:45;103653.41;;;6.23;100.00
19128;BME280;9696;53.686;10.094;2023-02-13T08:38:14;103654.09;;;6.31;100.00
19128;BME280;9696;53.686;10.094;2023-02-13T08:40:44;103644.66;;;6.25;100.00
19128;BME280;9696;53.686;10.094;2023-02-13T08:43:14;103649.69;;;6.33;100.00
19128;BME280;9696;53.686;10.094;2023-02-13T08:45:43;103642.72;;;6.35;100.00
19128;BME280;9696;53.686;10.094;2023-02-13T08:48:12;103645.19;;;6.41;100.00
19128;BME280;9696;53.686;10.094;2023-02-13T08:50:41;103653.22;;;6.32;100.00
19128;BME280;9696;53.686;10.094;2023-02-13T08:53:11;103655.66;;;6.39;100.00
19128;BME280;9696;53.686;10.094;2023-02-13T08:55:40;103643.44;;;6.41;100.00
19128;BME280;9696;53.686;10.094;2023-02-13T08:58:10;103652.19;;;6.39;100.00
19128;BME280;9696;53.686;10.094;2023-02-13T09:00:40;103646.22;;;6.34;100.00
19128;BME280;9696;53.686;10.094;2023-02-13T09:03:09;103646.94;;;6.40;100.00
19128;BME280;9696;53.686;10.094;2023-02-13T09:05:38;103639.19;;;6.37;100.00
19128;BME280;9696;53.686;10.094;2023-02-13T09:08:08;103646.19;;;6.35;100.00
19128;BME280;9696;53.686;10.094;2023-02-13T09:10:38;103659.06;;;6.41;100.00
19128;BME280;9696;53.686;10.094;2023-02-13T09:13:09;103654.66;;;6.45;100.00
19128;BME280;9696;53.686;10.094;2023-02-13T09:15:39;103649.25;;;6.54;100.00
19128;BME280;9696;53.686;10.094;2023-02-13T09:18:08;103652.78;;;6.51;100.00
19128;BME280;9696;53.686;10.094;2023-02-13T09:20:37;103655.44;;;6.48;100.00
19128;BME280;9696;53.686;10.094;2023-02-13T09:23:07;103657.13;;;6.51;100.00
19128;BME280;9696;53.686;10.094;2023-02-13T09:25:36;103656.19;;;6.55;100.00
19128;BME280;9696;53.686;10.094;2023-02-13T09:28:05;103652.72;;;6.54;100.00
19128;BME280;9696;53.686;10.094;2023-02-13T09:30:36;103666.53;;;6.58;100.00
19128;BME280;9696;53.686;10.094;2023-02-13T09:33:09;103667.22;;;6.66;100.00
19128;BME280;9696;53.686;10.094;2023-02-13T09:35:39;103673.22;;;6.70;100.00
19128;BME280;9696;53.686;10.094;2023-02-13T09:38:09;103668.06;;;6.67;100.00
19128;BME280;9696;53.686;10.094;2023-02-13T09:40:43;103664.91;;;6.52;100.00
19128;BME280;9696;53.686;10.094;2023-02-13T09:43:20;103664.50;;;6.71;100.00
19128;BME280;9696;53.686;10.094;2023-02-13T09:45:55;103661.63;;;6.81;100.00
19128;BME280;9696;53.686;10.094;2023-02-13T09:48:29;103656.41;;;6.81;100.00
19128;BME280;9696;53.686;10.094;2023-02-13T09:51:00;103656.44;;;6.80;100.00
19128;BME280;9696;53.686;10.094;2023-02-13T09:53:30;103655.16;;;6.97;100.00
19128;BME280;9696;53.686;10.094;2023-02-13T09:56:04;103643.78;;;7.00;100.00
19128;BME280;9696;53.686;10.094;2023-02-13T09:58:41;103652.28;;;7.08;100.00
19128;BME280;9696;53.686;10.094;2023-02-13T10:01:23;103645.59;;;6.96;100.00
19128;BME280;9696;53.686;10.094;2023-02-13T10:04:15;103645.97;;;7.17;100.00
19128;BME280;9696;53.686;10.094;2023-02-13T10:06:52;103644.69;;;6.99;100.00
19128;BME280;9696;53.686;10.094;2023-02-13T10:09:30;103635.91;;;7.03;100.00
19128;BME280;9696;53.686;10.094;2023-02-13T10:12:14;103636.97;;;7.28;100.00
19128;BME280;9696;53.686;10.094;2023-02-13T10:14:53;103640.94;;;7.09;100.00
19128;BME280;9696;53.686;10.094;2023-02-13T10:17:31;103634.25;;;6.99;100.00
19128;BME280;9696;53.686;10.094;2023-02-13T10:20:04;103633.81;;;7.16;100.00
19128;BME280;9696;53.686;10.094;2023-02-13T10:22:37;103633.75;;;7.19;100.00
19128;BME280;9696;53.686;10.094;2023-02-13T10:25:11;103632.84;;;7.20;100.00
19128;BME280;9696;53.686;10.094;2023-02-13T10:27:48;103630.78;;;6.98;100.00
19128;BME280;9696;53.686;10.094;2023-02-13T10:30:24;103630.97;;;7.25;100.00
19128;BME280;9696;53.686;10.094;2023-02-13T10:32:59;103629.03;;;7.33;100.00
19128;BME280;9696;53.686;10.094;2023-02-13T10:35:51;103639.22;;;7.42;100.00
19128;BME280;9696;53.686;10.094;2023-02-13T10:38:23;103636.47;;;7.14;100.00
19128;BME280;9696;53.686;10.094;2023-02-13T10:41:04;103637.91;;;7.26;100.00
19128;BME280;9696;53.686;10.094;2023-02-13T10:43:43;103643.03;;;7.30;100.00
19128;BME280;9696;53.686;10.094;2023-02-13T10:46:23;103647.16;;;7.03;100.00
19128;BME280;9696;53.686;10.094;2023-02-13T10:49:09;103630.75;;;7.34;100.00
19128;BME280;9696;53.686;10.094;2023-02-13T10:51:48;103627.69;;;7.18;100.00
19128;BME280;9696;53.686;10.094;2023-02-13T10:54:27;103634.81;;;7.44;100.00
19128;BME280;9696;53.686;10.094;2023-02-13T10:57:05;103626.72;;;7.54;100.00
19128;BME280;9696;53.686;10.094;2023-02-13T10:59:47;103632.06;;;7.50;100.00
19128;BME280;9696;53.686;10.094;2023-02-13T11:02:23;103630.00;;;7.61;100.00
19128;BME280;9696;53.686;10.094;2023-02-13T11:04:58;103636.22;;;7.55;100.00
19128;BME280;9696;53.686;10.094;2023-02-13T11:07:29;103630.41;;;7.46;100.00
19128;BME280;9696;53.686;10.094;2023-02-13T11:10:02;103624.44;;;7.41;100.00
19128;BME280;9696;53.686;10.094;2023-02-13T11:12:34;103625.69;;;7.58;100.00
19128;BME280;9696;53.686;10.094;2023-02-13T11:15:06;103621.47;;;7.54;100.00
19128;BME280;9696;53.686;10.094;2023-02-13T11:17:39;103613.69;;;7.82;100.00
19128;BME280;9696;53.686;10.094;2023-02-13T11:20:29;103615.53;;;7.49;100.00
19128;BME280;9696;53.686;10.094;2023-02-13T11:23:26;103610.63;;;7.37;100.00
19128;BME280;9696;53.686;10.094;2023-02-13T11:26:02;103602.59;;;7.45;100.00
19128;BME280;9696;53.686;10.094;2023-02-13T11:28:37;103601.50;;;7.20;100.00
19128;BME280;9696;53.686;10.094;2023-02-13T11:31:23;103594.13;;;7.35;100.00
19128;BME280;9696;53.686;10.094;2023-02-13T11:33:53;103604.88;;;7.25;100.00
19128;BME280;9696;53.686;10.094;2023-02-13T11:36:29;103603.16;;;7.24;100.00
19128;BME280;9696;53.686;10.094;2023-02-13T11:39:03;103606.63;;;7.55;100.00
19128;BME280;9696;53.686;10.094;2023-02-13T11:41:38;103610.81;;;7.62;100.00
19128;BME280;9696;53.686;10.094;2023-02-13T11:44:21;103614.53;;;7.84;100.00
19128;BME280;9696;53.686;10.094;2023-02-13T11:46:53;103626.63;;;7.87;100.00
19128;BME280;9696;53.686;10.094;2023-02-13T11:49:24;103612.28;;;7.71;100.00
19128;BME280;9696;53.686;10.094;2023-02-13T11:51:56;103617.19;;;7.52;100.00
19128;BME280;9696;53.686;10.094;2023-02-13T11:54:30;103614.78;;;7.44;100.00
19128;BME280;9696;53.686;10.094;2023-02-13T11:57:02;103610.72;;;7.34;100.00
19128;BME280;9696;53.686;10.094;2023-02-13T11:59:40;103614.53;;;7.53;100.00
19128;BME280;9696;53.686;10.094;2023-02-13T12:02:16;103611.19;;;7.48;100.00
19128;BME280;9696;53.686;10.094;2023-02-13T12:04:47;103608.44;;;7.53;100.00
19128;BME280;9696;53.686;10.094;2023-02-13T12:07:21;103612.84;;;7.51;100.00
19128;BME280;9696;53.686;10.094;2023-02-13T12:09:57;103610.38;;;7.46;100.00
19128;BME280;9696;53.686;10.094;2023-02-13T12:12:34;103605.59;;;7.62;100.00
19128;BME280;9696;53.686;10.094;2023-02-13T12:15:15;103600.06;;;7.73;100.00
19128;BME280;9696;53.686;10.094;2023-02-13T12:17:48;103600.28;;;7.65;100.00
19128;BME280;9696;53.686;10.094;2023-02-13T12:20:21;103598.13;;;7.48;100.00
19128;BME280;9696;53.686;10.094;2023-02-13T12:23:00;103600.63;;;7.53;100.00
19128;BME280;9696;53.686;10.094;2023-02-13T12:25:52;103598.44;;;7.38;100.00
19128;BME280;9696;53.686;10.094;2023-02-13T12:31:38;103598.00;;;7.53;100.00
19128;BME280;9696;53.686;10.094;2023-02-13T12:37:36;103588.34;;;7.55;100.00
19128;BME280;9696;53.686;10.094;2023-02-13T12:46:11;103585.75;;;7.55;100.00
19128;BME280;9696;53.686;10.094;2023-02-13T12:48:50;103580.69;;;7.50;100.00
19128;BME280;9696;53.686;10.094;2023-02-13T12:51:27;103584.44;;;7.39;100.00
19128;BME280;9696;53.686;10.094;2023-02-13T12:54:20;103586.38;;;7.63;100.00
19128;BME280;9696;53.686;10.094;2023-02-13T12:57:10;103584.53;;;7.67;100.00
19128;BME280;9696;53.686;10.094;2023-02-13T12:59:52;103584.00;;;7.55;100.00
19128;BME280;9696;53.686;10.094;2023-02-13T13:05:46;103585.06;;;7.79;100.00
19128;BME280;9696;53.686;10.094;2023-02-13T13:08:48;103576.56;;;7.71;100.00
19128;BME280;9696;53.686;10.094;2023-02-13T13:11:32;103576.94;;;7.59;100.00
19128;BME280;9696;53.686;10.094;2023-02-13T13:14:13;103580.28;;;7.64;100.00
19128;BME280;9696;53.686;10.094;2023-02-13T13:16:56;103578.88;;;7.51;100.00
19128;BME280;9696;53.686;10.094;2023-02-13T13:19:34;103579.19;;;7.40;100.00
19128;BME280;9696;53.686;10.094;2023-02-13T13:22:11;103576.63;;;7.39;100.00
19128;BME280;9696;53.686;10.094;2023-02-13T13:24:53;103571.91;;;7.51;100.00
19128;BME280;9696;53.686;10.094;2023-02-13T13:27:29;103576.88;;;7.61;100.00
19128;BME280;9696;53.686;10.094;2023-02-13T13:30:05;103578.47;;;7.35;100.00
19128;BME280;9696;53.686;10.094;2023-02-13T13:32:42;103571.75;;;7.57;100.00
19128;BME280;9696;53.686;10.094;2023-02-13T13:35:14;103572.53;;;7.61;100.00
19128;BME280;9696;53.686;10.094;2023-02-13T13:37:50;103566.13;;;7.42;100.00
19128;BME280;9696;53.686;10.094;2023-02-13T13:40:37;103559.13;;;7.42;100.00
19128;BME280;9696;53.686;10.094;2023-02-13T13:43:16;103559.81;;;7.49;100.00
19128;BME280;9696;53.686;10.094;2023-02-13T13:45:56;103564.72;;;7.59;100.00
19128;BME280;9696;53.686;10.094;2023-02-13T13:48:57;103560.75;;;7.46;100.00
19128;BME280;9696;53.686;10.094;2023-02-13T13:51:30;103569.72;;;7.38;100.00